sensor_id;sensor_type;location;lat;lon;timestamp;P1;durP1;ratioP1;P2;durP2;ratioP2
21890;SDS011;11110;52.386;16.940;2022-12-18T00:00:21;41.23;;;14.90;;
21890;SDS011;11110;52.386;16.940;2022-12-18T00:03:14;42.20;;;15.27;;
21890;SDS011;11110;52.386;16.940;2022-12-18T00:05:46;55.50;;;17.47;;
21890;SDS011;11110;52.386;16.940;2022-12-18T00:08:15;46.13;;;18.17;;
21890;SDS011;11110;52.386;16.940;2022-12-18T00:10:44;51.47;;;16.57;;
21890;SDS011;11110;52.386;16.940;2022-12-18T00:13:13;42.97;;;15.30;;
21890;SDS011;11110;52.386;16.940;2022-12-18T00:15:41;56.00;;;16.93;;
21890;SDS011;11110;52.386;16.940;2022-12-18T00:18:10;41.87;;;17.07;;
21890;SDS011;11110;52.386;16.940;2022-12-18T00:20:46;57.97;;;21.30;;
21890;SDS011;11110;52.386;16.940;2022-12-18T00:23:14;47.27;;;16.03;;
21890;SDS011;11110;52.386;16.940;2022-12-18T00:25:42;42.70;;;16.33;;
21890;SDS011;11110;52.386;16.940;2022-12-18T00:28:11;52.00;;;17.47;;
21890;SDS011;11110;52.386;16.940;2022-12-18T00:30:39;46.53;;;15.13;;
21890;SDS011;11110;52.386;16.940;2022-12-18T00:33:08;43.87;;;16.07;;
21890;SDS011;11110;52.386;16.940;2022-12-18T00:35:36;42.97;;;15.60;;
21890;SDS011;11110;52.386;16.940;2022-12-18T00:38:06;39.20;;;14.87;;
21890;SDS011;11110;52.386;16.940;2022-12-18T00:40:35;38.27;;;15.53;;
21890;SDS011;11110;52.386;16.940;2022-12-18T00:43:03;45.73;;;16.30;;
21890;SDS011;11110;52.386;16.940;2022-12-18T00:45:31;46.17;;;16.13;;
21890;SDS011;11110;52.386;16.940;2022-12-18T00:47:59;48.70;;;16.60;;
21890;SDS011;11110;52.386;16.940;2022-12-18T00:50:28;48.60;;;16.07;;
21890;SDS011;11110;52.386;16.940;2022-12-18T00:52:56;45.20;;;15.63;;
21890;SDS011;11110;52.386;16.940;2022-12-18T00:55:26;34.60;;;12.97;;
21890;SDS011;11110;52.386;16.940;2022-12-18T00:57:56;36.30;;;14.33;;
21890;SDS011;11110;52.386;16.940;2022-12-18T01:00:24;40.80;;;14.63;;
21890;SDS011;11110;52.386;16.940;2022-12-18T01:02:53;44.73;;;16.50;;
21890;SDS011;11110;52.386;16.940;2022-12-18T01:05:23;40.03;;;14.50;;
21890;SDS011;11110;52.386;16.940;2022-12-18T01:07:52;53.30;;;16.93;;
21890;SDS011;11110;52.386;16.940;2022-12-18T01:10:20;46.70;;;15.43;;
21890;SDS011;11110;52.386;16.940;2022-12-18T01:12:51;50.33;;;18.07;;
21890;SDS011;11110;52.386;16.940;2022-12-18T01:15:20;54.40;;;16.80;;
21890;SDS011;11110;52.386;16.940;2022-12-18T01:17:49;45.43;;;17.27;;
21890;SDS011;11110;52.386;16.940;2022-12-18T01:20:20;50.27;;;15.70;;
21890;SDS011;11110;52.386;16.940;2022-12-18T01:22:49;48.17;;;16.60;;
21890;SDS011;11110;52.386;16.940;2022-12-18T01:25:18;40.60;;;14.37;;
21890;SDS011;11110;52.386;16.940;2022-12-18T01:27:46;41.27;;;15.70;;
21890;SDS011;11110;52.386;16.940;2022-12-18T01:30:16;35.87;;;13.73;;
21890;SDS011;11110;52.386;16.940;2022-12-18T01:32:46;36.07;;;13.87;;
21890;SDS011;11110;52.386;16.940;2022-12-18T01:35:14;49.57;;;16.83;;
21890;SDS011;11110;52.386;16.940;2022-12-18T01:37:43;42.20;;;14.40;;
21890;SDS011;11110;52.386;16.940;2022-12-18T01:40:11;48.37;;;13.83;;
21890;SDS011;11110;52.386;16.940;2022-12-18T01:42:40;35.23;;;13.63;;
21890;SDS011;11110;52.386;16.940;2022-12-18T01:47:57;39.23;;;13.03;;
21890;SDS011;11110;52.386;16.940;2022-12-18T01:50:29;39.00;;;15.97;;
21890;SDS011;11110;52.386;16.940;2022-12-18T01:53:03;39.77;;;14.20;;
21890;SDS011;11110;52.386;16.940;2022-12-18T01:55:35;42.60;;;14.87;;
21890;SDS011;11110;52.386;16.940;2022-12-18T01:58:07;46.10;;;17.40;;
21890;SDS011;11110;52.386;16.940;2022-12-18T02:00:36;44.83;;;15.47;;
21890;SDS011;11110;52.386;16.940;2022-12-18T02:03:05;43.63;;;15.57;;
21890;SDS011;11110;52.386;16.940;2022-12-18T02:05:36;43.77;;;14.57;;
21890;SDS011;11110;52.386;16.940;2022-12-18T02:08:14;37.93;;;13.30;;
21890;SDS011;11110;52.386;16.940;2022-12-18T02:10:51;42.13;;;15.27;;
21890;SDS011;11110;52.386;16.940;2022-12-18T02:13:26;41.17;;;14.07;;
21890;SDS011;11110;52.386;16.940;2022-12-18T02:16:02;42.90;;;14.80;;
21890;SDS011;11110;52.386;16.940;2022-12-18T02:18:41;42.70;;;14.20;;
21890;SDS011;11110;52.386;16.940;2022-12-18T02:21:15;40.63;;;14.10;;
21890;SDS011;11110;52.386;16.940;2022-12-18T02:23:56;41.83;;;15.47;;
21890;SDS011;11110;52.386;16.940;2022-12-18T02:26:34;41.93;;;13.57;;
21890;SDS011;11110;52.386;16.940;2022-12-18T02:29:07;37.70;;;13.37;;
21890;SDS011;11110;52.386;16.940;2022-12-18T02:31:42;37.97;;;13.23;;
21890;SDS011;11110;52.386;16.940;2022-12-18T02:34:13;42.50;;;14.07;;
21890;SDS011;11110;52.386;16.940;2022-12-18T02:36:45;39.20;;;14.30;;
21890;SDS011;11110;52.386;16.940;2022-12-18T02:39:16;46.97;;;14.73;;
21890;SDS011;11110;52.386;16.940;2022-12-18T02:42:01;41.20;;;15.20;;
21890;SDS011;11110;52.386;16.940;2022-12-18T02:44:35;39.37;;;14.53;;
21890;SDS011;11110;52.386;16.940;2022-12-18T02:47:09;45.57;;;15.27;;
21890;SDS011;11110;52.386;16.940;2022-12-18T02:49:42;41.33;;;16.30;;
21890;SDS011;11110;52.386;16.940;2022-12-18T02:52:18;39.90;;;15.40;;
21890;SDS011;11110;52.386;16.940;2022-12-18T02:55:00;49.67;;;15.77;;
21890;SDS011;11110;52.386;16.940;2022-12-18T02:57:45;51.10;;;17.87;;
21890;SDS011;11110;52.386;16.940;2022-12-18T03:00:21;46.87;;;17.30;;
21890;SDS011;11110;52.386;16.940;2022-12-18T03:02:57;50.87;;;18.80;;
21890;SDS011;11110;52.386;16.940;2022-12-18T03:05:33;57.17;;;19.73;;
21890;SDS011;11110;52.386;16.940;2022-12-18T03:08:06;44.00;;;17.03;;
21890;SDS011;11110;52.386;16.940;2022-12-18T03:10:40;56.23;;;19.00;;
21890;SDS011;11110;52.386;16.940;2022-12-18T03:13:16;43.30;;;16.40;;
21890;SDS011;11110;52.386;16.940;2022-12-18T03:15:55;48.10;;;16.30;;
21890;SDS011;11110;52.386;16.940;2022-12-18T03:18:25;50.17;;;15.83;;
21890;SDS011;11110;52.386;16.940;2022-12-18T03:20:58;50.40;;;17.93;;
21890;SDS011;11110;52.386;16.940;2022-12-18T03:23:34;47.27;;;18.23;;
21890;SDS011;11110;52.386;16.940;2022-12-18T03:26:09;50.63;;;19.10;;
21890;SDS011;11110;52.386;16.940;2022-12-18T03:28:42;48.57;;;17.40;;
21890;SDS011;11110;52.386;16.940;2022-12-18T03:31:14;48.60;;;18.07;;
21890;SDS011;11110;52.386;16.940;2022-12-18T03:33:44;47.53;;;16.10;;
21890;SDS011;11110;52.386;16.940;2022-12-18T03:36:17;47.87;;;17.70;;
21890;SDS011;11110;52.386;16.940;2022-12-18T03:38:46;60.50;;;18.27;;
21890;SDS011;11110;52.386;16.940;2022-12-18T03:41:18;51.03;;;18.33;;
21890;SDS011;11110;52.386;16.940;2022-12-18T03:44:19;44.00;;;15.63;;
21890;SDS011;11110;52.386;16.940;2022-12-18T03:46:54;46.67;;;16.33;;
21890;SDS011;11110;52.386;16.940;2022-12-18T03:49:31;48.67;;;16.23;;
21890;SDS011;11110;52.386;16.940;2022-12-18T03:52:06;41.67;;;15.57;;
21890;SDS011;11110;52.386;16.940;2022-12-18T03:54:39;58.40;;;18.43;;
21890;SDS011;11110;52.386;16.940;2022-12-18T03:57:14;54.63;;;16.90;;
21890;SDS011;11110;52.386;16.940;2022-12-18T03:59:49;53.30;;;17.20;;
21890;SDS011;11110;52.386;16.940;2022-12-18T04:02:23;53.87;;;17.47;;
21890;SDS011;11110;52.386;16.940;2022-12-18T04:04:55;48.50;;;16.17;;
21890;SDS011;11110;52.386;16.940;2022-12-18T04:07:27;53.20;;;17.60;;
21890;SDS011;11110;52.386;16.940;2022-12-18T04:09:57;49.77;;;16.73;;
21890;SDS011;11110;52.386;16.940;2022-12-18T04:12:30;44.47;;;16.10;;
21890;SDS011;11110;52.386;16.940;2022-12-18T04:15:01;51.50;;;17.93;;
21890;SDS011;11110;52.386;16.940;2022-12-18T04:17:30;47.40;;;16.77;;
21890;SDS011;11110;52.386;16.940;2022-12-18T04:19:58;46.53;;;15.63;;
21890;SDS011;11110;52.386;16.940;2022-12-18T04:22:27;49.97;;;15.77;;
21890;SDS011;11110;52.386;16.940;2022-12-18T04:24:58;50.27;;;16.07;;
21890;SDS011;11110;52.386;16.940;2022-12-18T04:27:34;49.73;;;17.63;;
21890;SDS011;11110;52.386;16.940;2022-12-18T04:30:06;47.50;;;16.03;;
21890;SDS011;11110;52.386;16.940;2022-12-18T04:32:35;43.27;;;14.77;;
21890;SDS011;11110;52.386;16.940;2022-12-18T04:35:04;40.90;;;14.83;;
21890;SDS011;11110;52.386;16.940;2022-12-18T04:37:38;48.17;;;16.27;;
21890;SDS011;11110;52.386;16.940;2022-12-18T04:40:07;53.97;;;17.07;;
21890;SDS011;11110;52.386;16.940;2022-12-18T04:42:41;47.13;;;16.93;;
21890;SDS011;11110;52.386;16.940;2022-12-18T04:45:11;46.13;;;15.50;;
21890;SDS011;11110;52.386;16.940;2022-12-18T04:47:40;45.87;;;17.10;;
21890;SDS011;11110;52.386;16.940;2022-12-18T04:50:08;35.97;;;14.43;;
21890;SDS011;11110;52.386;16.940;2022-12-18T04:52:37;49.30;;;16.47;;
21890;SDS011;11110;52.386;16.940;2022-12-18T04:55:06;53.10;;;16.87;;
21890;SDS011;11110;52.386;16.940;2022-12-18T04:57:35;44.20;;;16.20;;
21890;SDS011;11110;52.386;16.940;2022-12-18T05:00:03;44.97;;;15.17;;
21890;SDS011;11110;52.386;16.940;2022-12-18T05:02:34;39.13;;;14.67;;
21890;SDS011;11110;52.386;16.940;2022-12-18T05:05:03;45.60;;;14.63;;
21890;SDS011;11110;52.386;16.940;2022-12-18T05:07:33;41.37;;;15.30;;
21890;SDS011;11110;52.386;16.940;2022-12-18T05:10:01;44.97;;;14.77;;
21890;SDS011;11110;52.386;16.940;2022-12-18T05:12:38;36.53;;;13.63;;
21890;SDS011;11110;52.386;16.940;2022-12-18T05:15:26;40.87;;;14.67;;
21890;SDS011;11110;52.386;16.940;2022-12-18T05:17:57;43.63;;;14.90;;
21890;SDS011;11110;52.386;16.940;2022-12-18T05:20:26;43.87;;;15.70;;
21890;SDS011;11110;52.386;16.940;2022-12-18T05:22:56;44.33;;;16.63;;
21890;SDS011;11110;52.386;16.940;2022-12-18T05:25:25;44.30;;;15.60;;
21890;SDS011;11110;52.386;16.940;2022-12-18T05:27:53;42.40;;;15.97;;
21890;SDS011;11110;52.386;16.940;2022-12-18T05:30:22;38.07;;;13.57;;
21890;SDS011;11110;52.386;16.940;2022-12-18T05:32:50;50.70;;;15.23;;
21890;SDS011;11110;52.386;16.940;2022-12-18T05:35:20;52.97;;;15.27;;
21890;SDS011;11110;52.386;16.940;2022-12-18T05:37:49;47.33;;;15.43;;
21890;SDS011;11110;52.386;16.940;2022-12-18T05:40:17;42.83;;;15.40;;
21890;SDS011;11110;52.386;16.940;2022-12-18T05:42:46;52.67;;;17.53;;
21890;SDS011;11110;52.386;16.940;2022-12-18T05:45:14;52.23;;;14.50;;
21890;SDS011;11110;52.386;16.940;2022-12-18T05:47:43;42.10;;;14.37;;
21890;SDS011;11110;52.386;16.940;2022-12-18T05:50:11;44.63;;;14.70;;
21890;SDS011;11110;52.386;16.940;2022-12-18T05:52:41;42.17;;;15.67;;
21890;SDS011;11110;52.386;16.940;2022-12-18T05:55:10;41.00;;;12.97;;
21890;SDS011;11110;52.386;16.940;2022-12-18T05:57:38;42.30;;;15.03;;
21890;SDS011;11110;52.386;16.940;2022-12-18T06:00:07;46.87;;;15.63;;
21890;SDS011;11110;52.386;16.940;2022-12-18T06:02:39;44.87;;;14.67;;
21890;SDS011;11110;52.386;16.940;2022-12-18T06:05:08;47.83;;;15.10;;
21890;SDS011;11110;52.386;16.940;2022-12-18T06:07:38;44.43;;;15.63;;
21890;SDS011;11110;52.386;16.940;2022-12-18T06:10:08;40.27;;;14.73;;
21890;SDS011;11110;52.386;16.940;2022-12-18T06:12:36;40.40;;;15.27;;
21890;SDS011;11110;52.386;16.940;2022-12-18T06:15:06;43.67;;;15.57;;
21890;SDS011;11110;52.386;16.940;2022-12-18T06:17:35;42.73;;;14.40;;
21890;SDS011;11110;52.386;16.940;2022-12-18T06:20:05;39.20;;;14.07;;
21890;SDS011;11110;52.386;16.940;2022-12-18T06:22:34;41.63;;;14.67;;
21890;SDS011;11110;52.386;16.940;2022-12-18T06:25:03;44.70;;;15.67;;
21890;SDS011;11110;52.386;16.940;2022-12-18T06:27:35;44.90;;;15.50;;
21890;SDS011;11110;52.386;16.940;2022-12-18T06:30:04;43.90;;;13.77;;
21890;SDS011;11110;52.386;16.940;2022-12-18T06:32:33;38.53;;;12.00;;
21890;SDS011;11110;52.386;16.940;2022-12-18T06:35:01;47.87;;;14.87;;
21890;SDS011;11110;52.386;16.940;2022-12-18T06:37:31;38.00;;;14.67;;
21890;SDS011;11110;52.386;16.940;2022-12-18T06:39:59;35.27;;;13.60;;
21890;SDS011;11110;52.386;16.940;2022-12-18T06:42:28;39.23;;;13.73;;
21890;SDS011;11110;52.386;16.940;2022-12-18T06:44:58;36.07;;;12.80;;
21890;SDS011;11110;52.386;16.940;2022-12-18T06:47:27;36.17;;;12.90;;
21890;SDS011;11110;52.386;16.940;2022-12-18T06:49:55;37.83;;;12.43;;
21890;SDS011;11110;52.386;16.940;2022-12-18T06:52:24;39.63;;;14.70;;
21890;SDS011;11110;52.386;16.940;2022-12-18T06:54:52;30.77;;;12.90;;
21890;SDS011;11110;52.386;16.940;2022-12-18T06:57:21;43.33;;;14.87;;
21890;SDS011;11110;52.386;16.940;2022-12-18T06:59:49;44.67;;;13.53;;
21890;SDS011;11110;52.386;16.940;2022-12-18T07:02:20;38.47;;;13.33;;
21890;SDS011;11110;52.386;16.940;2022-12-18T07:04:48;50.20;;;14.53;;
21890;SDS011;11110;52.386;16.940;2022-12-18T07:07:17;44.30;;;16.00;;
21890;SDS011;11110;52.386;16.940;2022-12-18T07:09:45;46.00;;;16.73;;
21890;SDS011;11110;52.386;16.940;2022-12-18T07:12:14;51.07;;;17.43;;
21890;SDS011;11110;52.386;16.940;2022-12-18T07:14:42;51.63;;;15.63;;
21890;SDS011;11110;52.386;16.940;2022-12-18T07:17:11;48.13;;;16.53;;
21890;SDS011;11110;52.386;16.940;2022-12-18T07:19:41;143.90;;;91.53;;
21890;SDS011;11110;52.386;16.940;2022-12-18T07:22:09;135.97;;;120.87;;
21890;SDS011;11110;52.386;16.940;2022-12-18T07:24:38;137.37;;;122.37;;
21890;SDS011;11110;52.386;16.940;2022-12-18T07:27:06;143.00;;;122.83;;
21890;SDS011;11110;52.386;16.940;2022-12-18T07:29:35;150.60;;;124.20;;
21890;SDS011;11110;52.386;16.940;2022-12-18T07:32:05;147.37;;;126.30;;
21890;SDS011;11110;52.386;16.940;2022-12-18T07:34:34;138.03;;;122.40;;
21890;SDS011;11110;52.386;16.940;2022-12-18T07:37:04;152.03;;;123.93;;
21890;SDS011;11110;52.386;16.940;2022-12-18T07:39:32;145.37;;;126.10;;
21890;SDS011;11110;52.386;16.940;2022-12-18T07:42:01;141.93;;;126.40;;
21890;SDS011;11110;52.386;16.940;2022-12-18T07:44:47;158.03;;;128.03;;
21890;SDS011;11110;52.386;16.940;2022-12-18T07:47:16;143.70;;;122.87;;
21890;SDS011;11110;52.386;16.940;2022-12-18T07:49:44;138.83;;;123.60;;
21890;SDS011;11110;52.386;16.940;2022-12-18T07:52:14;144.23;;;124.67;;
21890;SDS011;11110;52.386;16.940;2022-12-18T07:54:49;132.80;;;118.37;;
21890;SDS011;11110;52.386;16.940;2022-12-18T07:57:18;142.90;;;117.40;;
21890;SDS011;11110;52.386;16.940;2022-12-18T08:00:07;135.43;;;119.60;;
21890;SDS011;11110;52.386;16.940;2022-12-18T08:02:39;142.40;;;117.83;;
21890;SDS011;11110;52.386;16.940;2022-12-18T08:05:08;128.70;;;114.47;;
21890;SDS011;11110;52.386;16.940;2022-12-18T08:07:38;132.60;;;118.27;;
21890;SDS011;11110;52.386;16.940;2022-12-18T08:10:07;145.13;;;125.07;;
21890;SDS011;11110;52.386;16.940;2022-12-18T08:12:36;137.00;;;119.57;;
21890;SDS011;11110;52.386;16.940;2022-12-18T08:15:05;148.53;;;122.77;;
21890;SDS011;11110;52.386;16.940;2022-12-18T08:17:34;152.67;;;125.13;;
21890;SDS011;11110;52.386;16.940;2022-12-18T08:20:02;149.93;;;118.23;;
21890;SDS011;11110;52.386;16.940;2022-12-18T08:22:33;141.27;;;111.83;;
21890;SDS011;11110;52.386;16.940;2022-12-18T08:25:07;145.83;;;119.37;;
21890;SDS011;11110;52.386;16.940;2022-12-18T08:27:36;142.70;;;118.77;;
21890;SDS011;11110;52.386;16.940;2022-12-18T08:30:05;136.50;;;119.87;;
21890;SDS011;11110;52.386;16.940;2022-12-18T08:32:35;143.53;;;120.30;;
21890;SDS011;11110;52.386;16.940;2022-12-18T08:35:04;132.47;;;116.47;;
21890;SDS011;11110;52.386;16.940;2022-12-18T08:37:34;150.93;;;121.57;;
21890;SDS011;11110;52.386;16.940;2022-12-18T08:40:03;165.37;;;125.50;;
21890;SDS011;11110;52.386;16.940;2022-12-18T08:42:34;156.63;;;121.80;;
21890;SDS011;11110;52.386;16.940;2022-12-18T08:45:19;152.73;;;120.97;;
21890;SDS011;11110;52.386;16.940;2022-12-18T08:47:48;160.40;;;124.33;;
21890;SDS011;11110;52.386;16.940;2022-12-18T08:50:16;133.00;;;116.23;;
21890;SDS011;11110;52.386;16.940;2022-12-18T08:52:46;133.57;;;119.30;;
21890;SDS011;11110;52.386;16.940;2022-12-18T08:55:14;132.87;;;116.37;;
21890;SDS011;11110;52.386;16.940;2022-12-18T08:57:44;128.53;;;115.37;;
21890;SDS011;11110;52.386;16.940;2022-12-18T09:00:16;126.50;;;113.03;;
21890;SDS011;11110;52.386;16.940;2022-12-18T09:02:44;128.03;;;114.60;;
21890;SDS011;11110;52.386;16.940;2022-12-18T09:05:13;124.93;;;111.67;;
21890;SDS011;11110;52.386;16.940;2022-12-18T09:07:42;126.67;;;105.60;;
21890;SDS011;11110;52.386;16.940;2022-12-18T09:10:10;136.33;;;103.40;;
21890;SDS011;11110;52.386;16.940;2022-12-18T09:12:39;118.63;;;101.53;;
21890;SDS011;11110;52.386;16.940;2022-12-18T09:15:10;119.77;;;101.87;;
21890;SDS011;11110;52.386;16.940;2022-12-18T09:17:39;127.70;;;98.13;;
21890;SDS011;11110;52.386;16.940;2022-12-18T09:20:08;133.17;;;105.60;;
21890;SDS011;11110;52.386;16.940;2022-12-18T09:22:37;122.67;;;103.37;;
21890;SDS011;11110;52.386;16.940;2022-12-18T09:25:05;128.73;;;96.50;;
21890;SDS011;11110;52.386;16.940;2022-12-18T09:27:35;116.03;;;97.30;;
21890;SDS011;11110;52.386;16.940;2022-12-18T09:30:04;132.87;;;98.50;;
21890;SDS011;11110;52.386;16.940;2022-12-18T09:32:35;136.90;;;92.17;;
21890;SDS011;11110;52.386;16.940;2022-12-18T09:35:04;127.97;;;98.70;;
21890;SDS011;11110;52.386;16.940;2022-12-18T09:37:33;127.90;;;99.20;;
21890;SDS011;11110;52.386;16.940;2022-12-18T09:40:01;139.90;;;99.20;;
21890;SDS011;11110;52.386;16.940;2022-12-18T09:42:30;131.03;;;95.07;;
21890;SDS011;11110;52.386;16.940;2022-12-18T09:44:58;135.40;;;92.60;;
21890;SDS011;11110;52.386;16.940;2022-12-18T09:47:28;136.10;;;90.10;;
21890;SDS011;11110;52.386;16.940;2022-12-18T09:50:04;120.07;;;85.47;;
21890;SDS011;11110;52.386;16.940;2022-12-18T09:52:43;124.57;;;93.03;;
21890;SDS011;11110;52.386;16.940;2022-12-18T09:55:17;124.67;;;92.97;;
21890;SDS011;11110;52.386;16.940;2022-12-18T09:57:52;120.50;;;89.63;;
21890;SDS011;11110;52.386;16.940;2022-12-18T10:00:24;123.43;;;91.33;;
21890;SDS011;11110;52.386;16.940;2022-12-18T10:02:56;131.20;;;93.03;;
21890;SDS011;11110;52.386;16.940;2022-12-18T10:05:32;112.23;;;84.67;;
21890;SDS011;11110;52.386;16.940;2022-12-18T10:08:05;126.73;;;85.63;;
21890;SDS011;11110;52.386;16.940;2022-12-18T10:10:41;117.30;;;85.63;;
21890;SDS011;11110;52.386;16.940;2022-12-18T10:13:19;129.07;;;87.17;;
21890;SDS011;11110;52.386;16.940;2022-12-18T10:16:02;114.90;;;82.43;;
21890;SDS011;11110;52.386;16.940;2022-12-18T10:18:42;118.77;;;80.63;;
21890;SDS011;11110;52.386;16.940;2022-12-18T10:21:32;111.67;;;81.13;;
21890;SDS011;11110;52.386;16.940;2022-12-18T10:24:08;119.23;;;80.73;;
21890;SDS011;11110;52.386;16.940;2022-12-18T10:26:47;109.20;;;76.43;;
21890;SDS011;11110;52.386;16.940;2022-12-18T10:29:16;129.13;;;83.53;;
21890;SDS011;11110;52.386;16.940;2022-12-18T10:31:44;121.27;;;78.03;;
21890;SDS011;11110;52.386;16.940;2022-12-18T10:34:13;118.00;;;82.27;;
21890;SDS011;11110;52.386;16.940;2022-12-18T10:36:43;123.43;;;82.10;;
21890;SDS011;11110;52.386;16.940;2022-12-18T10:39:15;115.63;;;80.13;;
21890;SDS011;11110;52.386;16.940;2022-12-18T10:41:44;109.10;;;81.20;;
21890;SDS011;11110;52.386;16.940;2022-12-18T10:44:16;121.80;;;81.17;;
21890;SDS011;11110;52.386;16.940;2022-12-18T10:46:46;114.97;;;78.80;;
21890;SDS011;11110;52.386;16.940;2022-12-18T10:49:22;113.53;;;79.57;;
21890;SDS011;11110;52.386;16.940;2022-12-18T10:52:05;115.53;;;78.50;;
21890;SDS011;11110;52.386;16.940;2022-12-18T10:54:45;107.67;;;76.53;;
21890;SDS011;11110;52.386;16.940;2022-12-18T10:57:16;112.53;;;78.00;;
21890;SDS011;11110;52.386;16.940;2022-12-18T10:59:57;99.70;;;76.50;;
21890;SDS011;11110;52.386;16.940;2022-12-18T11:02:28;122.97;;;82.23;;
21890;SDS011;11110;52.386;16.940;2022-12-18T11:05:05;111.10;;;79.70;;
21890;SDS011;11110;52.386;16.940;2022-12-18T11:07:55;118.70;;;82.07;;
21890;SDS011;11110;52.386;16.940;2022-12-18T11:10:26;121.63;;;82.87;;
21890;SDS011;11110;52.386;16.940;2022-12-18T11:13:08;124.07;;;82.97;;
21890;SDS011;11110;52.386;16.940;2022-12-18T11:15:39;117.83;;;80.13;;
21890;SDS011;11110;52.386;16.940;2022-12-18T11:18:15;115.10;;;82.60;;
21890;SDS011;11110;52.386;16.940;2022-12-18T11:20:50;117.57;;;82.33;;
21890;SDS011;11110;52.386;16.940;2022-12-18T11:23:25;117.63;;;82.90;;
21890;SDS011;11110;52.386;16.940;2022-12-18T11:25:56;113.90;;;79.60;;
21890;SDS011;11110;52.386;16.940;2022-12-18T11:31:19;120.80;;;76.73;;
21890;SDS011;11110;52.386;16.940;2022-12-18T11:33:57;110.97;;;77.17;;
21890;SDS011;11110;52.386;16.940;2022-12-18T11:36:49;110.00;;;74.00;;
21890;SDS011;11110;52.386;16.940;2022-12-18T11:39:19;118.70;;;78.63;;
21890;SDS011;11110;52.386;16.940;2022-12-18T11:41:55;120.33;;;79.07;;
21890;SDS011;11110;52.386;16.940;2022-12-18T11:44:43;119.20;;;79.00;;
21890;SDS011;11110;52.386;16.940;2022-12-18T11:47:19;113.67;;;79.13;;
21890;SDS011;11110;52.386;16.940;2022-12-18T11:49:52;112.10;;;76.80;;
21890;SDS011;11110;52.386;16.940;2022-12-18T11:52:24;108.67;;;74.30;;
21890;SDS011;11110;52.386;16.940;2022-12-18T11:54:58;121.97;;;76.23;;
21890;SDS011;11110;52.386;16.940;2022-12-18T11:57:31;118.23;;;74.07;;
21890;SDS011;11110;52.386;16.940;2022-12-18T12:00:07;125.83;;;75.17;;
21890;SDS011;11110;52.386;16.940;2022-12-18T12:02:42;114.27;;;75.13;;
21890;SDS011;11110;52.386;16.940;2022-12-18T12:05:41;120.23;;;76.73;;
21890;SDS011;11110;52.386;16.940;2022-12-18T12:08:20;120.87;;;77.13;;
21890;SDS011;11110;52.386;16.940;2022-12-18T12:11:01;124.00;;;77.23;;
21890;SDS011;11110;52.386;16.940;2022-12-18T12:13:41;125.77;;;76.97;;
21890;SDS011;11110;52.386;16.940;2022-12-18T12:16:16;119.17;;;75.70;;
21890;SDS011;11110;52.386;16.940;2022-12-18T12:18:56;124.30;;;77.77;;
21890;SDS011;11110;52.386;16.940;2022-12-18T12:21:35;121.83;;;80.80;;
21890;SDS011;11110;52.386;16.940;2022-12-18T12:24:14;127.80;;;79.50;;
21890;SDS011;11110;52.386;16.940;2022-12-18T12:26:57;123.53;;;79.83;;
21890;SDS011;11110;52.386;16.940;2022-12-18T12:29:35;120.90;;;78.40;;
21890;SDS011;11110;52.386;16.940;2022-12-18T12:32:17;136.23;;;80.83;;
21890;SDS011;11110;52.386;16.940;2022-12-18T12:34:58;122.63;;;76.47;;
21890;SDS011;11110;52.386;16.940;2022-12-18T12:37:39;125.53;;;76.03;;
21890;SDS011;11110;52.386;16.940;2022-12-18T12:40:14;125.57;;;80.07;;
21890;SDS011;11110;52.386;16.940;2022-12-18T12:43:16;118.27;;;81.43;;
21890;SDS011;11110;52.386;16.940;2022-12-18T12:45:50;120.57;;;79.50;;
21890;SDS011;11110;52.386;16.940;2022-12-18T12:48:27;137.70;;;83.30;;
21890;SDS011;11110;52.386;16.940;2022-12-18T12:51:03;119.20;;;78.77;;
21890;SDS011;11110;52.386;16.940;2022-12-18T12:53:37;126.20;;;79.50;;
21890;SDS011;11110;52.386;16.940;2022-12-18T12:56:09;131.03;;;83.27;;
21890;SDS011;11110;52.386;16.940;2022-12-18T12:58:46;125.23;;;80.87;;
21890;SDS011;11110;52.386;16.940;2022-12-18T13:01:25;126.03;;;80.43;;
21890;SDS011;11110;52.386;16.940;2022-12-18T13:04:07;126.67;;;80.70;;
21890;SDS011;11110;52.386;16.940;2022-12-18T13:06:46;117.07;;;79.60;;
21890;SDS011;11110;52.386;16.940;2022-12-18T13:09:21;126.03;;;82.83;;
21890;SDS011;11110;52.386;16.940;2022-12-18T13:11:50;126.30;;;84.33;;
21890;SDS011;11110;52.386;16.940;2022-12-18T13:14:52;125.80;;;82.50;;
21890;SDS011;11110;52.386;16.940;2022-12-18T13:17:26;131.33;;;82.93;;
21890;SDS011;11110;52.386;16.940;2022-12-18T13:20:07;127.07;;;82.80;;
21890;SDS011;11110;52.386;16.940;2022-12-18T13:22:44;120.80;;;77.53;;
21890;SDS011;11110;52.386;16.940;2022-12-18T13:25:32;132.73;;;80.27;;
21890;SDS011;11110;52.386;16.940;2022-12-18T13:28:07;134.97;;;84.27;;
21890;SDS011;11110;52.386;16.940;2022-12-18T13:30:43;127.60;;;77.77;;
21890;SDS011;11110;52.386;16.940;2022-12-18T13:36:30;132.47;;;80.90;;
21890;SDS011;11110;52.386;16.940;2022-12-18T13:45:36;124.30;;;83.07;;
21890;SDS011;11110;52.386;16.940;2022-12-18T13:48:19;141.20;;;86.13;;
21890;SDS011;11110;52.386;16.940;2022-12-18T13:50:52;125.50;;;82.77;;
21890;SDS011;11110;52.386;16.940;2022-12-18T13:53:27;127.97;;;84.87;;
21890;SDS011;11110;52.386;16.940;2022-12-18T13:55:58;145.17;;;84.97;;
21890;SDS011;11110;52.386;16.940;2022-12-18T13:58:26;142.80;;;88.17;;
21890;SDS011;11110;52.386;16.940;2022-12-18T14:00:55;147.07;;;86.30;;
21890;SDS011;11110;52.386;16.940;2022-12-18T14:03:27;133.77;;;84.27;;
21890;SDS011;11110;52.386;16.940;2022-12-18T14:06:04;136.03;;;85.37;;
21890;SDS011;11110;52.386;16.940;2022-12-18T14:08:36;137.80;;;85.13;;
21890;SDS011;11110;52.386;16.940;2022-12-18T14:11:07;143.67;;;86.20;;
21890;SDS011;11110;52.386;16.940;2022-12-18T14:13:48;128.83;;;84.10;;
21890;SDS011;11110;52.386;16.940;2022-12-18T14:16:17;131.80;;;83.17;;
21890;SDS011;11110;52.386;16.940;2022-12-18T14:18:48;127.10;;;82.77;;
21890;SDS011;11110;52.386;16.940;2022-12-18T14:21:25;129.27;;;86.07;;
21890;SDS011;11110;52.386;16.940;2022-12-18T14:24:06;127.63;;;86.00;;
21890;SDS011;11110;52.386;16.940;2022-12-18T14:26:43;141.07;;;87.00;;
21890;SDS011;11110;52.386;16.940;2022-12-18T14:29:20;132.60;;;83.67;;
21890;SDS011;11110;52.386;16.940;2022-12-18T14:32:03;125.90;;;83.83;;
21890;SDS011;11110;52.386;16.940;2022-12-18T14:34:43;117.53;;;81.97;;
21890;SDS011;11110;52.386;16.940;2022-12-18T14:37:13;136.23;;;85.37;;
21890;SDS011;11110;52.386;16.940;2022-12-18T14:39:51;130.10;;;82.37;;
21890;SDS011;11110;52.386;16.940;2022-12-18T14:42:22;127.17;;;83.70;;
21890;SDS011;11110;52.386;16.940;2022-12-18T14:48:08;127.53;;;81.63;;
21890;SDS011;11110;52.386;16.940;2022-12-18T14:50:57;129.83;;;85.90;;